sensor_id;sensor_type;location;lat;lon;timestamp;pressure;altitude;pressure_sealevel;temperature;humidity
79752;BME280;69234;47.446;21.636;2023-08-01T00:00:11;100034.75;;;16.12;88.79
79752;BME280;69234;47.446;21.636;2023-08-01T00:00:42;100039.97;;;16.13;89.15
79752;BME280;69234;47.446;21.636;2023-08-01T00:01:13;100034.75;;;16.12;88.05
79752;BME280;69234;47.446;21.636;2023-08-01T00:01:44;100035.59;;;16.12;88.49
79752;BME280;69234;47.446;21.636;2023-08-01T00:02:15;100035.59;;;16.12;88.21
79752;BME280;69234;47.446;21.636;2023-08-01T00:02:46;100035.09;;;16.09;88.04
79752;BME280;69234;47.446;21.636;2023-08-01T00:03:17;100034.41;;;16.07;89.03
79752;BME280;69234;47.446;21.636;2023-08-01T00:03:48;100037.13;;;16.07;88.47
79752;BME280;69234;47.446;21.636;2023-08-01T00:04:19;100033.09;;;16.03;88.38
79752;BME280;69234;47.446;21.636;2023-08-01T00:04:50;100038.16;;;16.06;88.97
79752;BME280;69234;47.446;21.636;2023-08-01T00:05:21;100037.31;;;16.05;88.25
79752;BME280;69234;47.446;21.636;2023-08-01T00:05:52;100043.22;;;16.09;88.12
79752;BME280;69234;47.446;21.636;2023-08-01T00:06:25;100040.53;;;16.09;88.45
79752;BME280;69234;47.446;21.636;2023-08-01T00:06:56;100036.28;;;16.06;88.20
79752;BME280;69234;47.446;21.636;2023-08-01T00:07:28;100032.78;;;15.98;88.98
79752;BME280;69234;47.446;21.636;2023-08-01T00:07:59;100028.34;;;15.97;89.21
79752;BME280;69234;47.446;21.636;2023-08-01T00:08:30;100039.03;;;15.98;88.94
79752;BME280;69234;47.446;21.636;2023-08-01T00:09:02;100042.78;;;15.97;88.77
79752;BME280;69234;47.446;21.636;2023-08-01T00:09:33;100035.00;;;15.94;87.96
79752;BME280;69234;47.446;21.636;2023-08-01T00:10:04;100030.41;;;15.95;88.17
79752;BME280;69234;47.446;21.636;2023-08-01T00:10:36;100032.78;;;15.98;88.43
79752;BME280;69234;47.446;21.636;2023-08-01T00:11:07;100035.28;;;15.99;88.82
79752;BME280;69234;47.446;21.636;2023-08-01T00:11:40;100029.72;;;15.92;87.92
79752;BME280;69234;47.446;21.636;2023-08-01T00:12:11;100033.97;;;15.95;88.66
79752;BME280;69234;47.446;21.636;2023-08-01T00:12:42;100034.16;;;15.93;88.55
79752;BME280;69234;47.446;21.636;2023-08-01T00:13:13;100029.41;;;15.87;89.24
79752;BME280;69234;47.446;21.636;2023-08-01T00:13:44;100035.69;;;15.88;89.67
79752;BME280;69234;47.446;21.636;2023-08-01T00:14:15;100032.13;;;15.87;89.08
79752;BME280;69234;47.446;21.636;2023-08-01T00:14:46;100034.66;;;15.89;88.40
79752;BME280;69234;47.446;21.636;2023-08-01T00:15:17;100037.53;;;15.87;89.17
79752;BME280;69234;47.446;21.636;2023-08-01T00:15:48;100034.16;;;15.85;88.95
79752;BME280;69234;47.446;21.636;2023-08-01T00:16:22;100026.88;;;15.86;88.98
79752;BME280;69234;47.446;21.636;2023-08-01T00:16:56;100029.41;;;15.87;88.51
79752;BME280;69234;47.446;21.636;2023-08-01T00:17:27;100032.63;;;15.91;88.66
79752;BME280;69234;47.446;21.636;2023-08-01T00:17:58;100028.72;;;15.85;89.36
79752;BME280;69234;47.446;21.636;2023-08-01T00:18:31;100027.06;;;15.84;88.93
79752;BME280;69234;47.446;21.636;2023-08-01T00:19:03;100022.81;;;15.82;89.02
79752;BME280;69234;47.446;21.636;2023-08-01T00:19:34;100021.28;;;15.79;89.95
79752;BME280;69234;47.446;21.636;2023-08-01T00:20:07;100024.88;;;15.80;90.16
79752;BME280;69234;47.446;21.636;2023-08-01T00:20:38;100021.28;;;15.79;89.57
79752;BME280;69234;47.446;21.636;2023-08-01T00:21:11;100023.16;;;15.79;88.99
79752;BME280;69234;47.446;21.636;2023-08-01T00:21:43;100028.44;;;15.80;89.00
79752;BME280;69234;47.446;21.636;2023-08-01T00:22:15;100019.97;;;15.75;88.77
79752;BME280;69234;47.446;21.636;2023-08-01T00:22:46;100018.97;;;15.76;89.15
79752;BME280;69234;47.446;21.636;2023-08-01T00:23:18;100018.97;;;15.76;89.86
79752;BME280;69234;47.446;21.636;2023-08-01T00:23:50;100018.97;;;15.76;89.65
79752;BME280;69234;47.446;21.636;2023-08-01T00:24:22;100025.03;;;15.78;88.90
79752;BME280;69234;47.446;21.636;2023-08-01T00:24:54;100016.25;;;15.76;88.47
79752;BME280;69234;47.446;21.636;2023-08-01T00:25:26;100014.19;;;15.78;89.26
79752;BME280;69234;47.446;21.636;2023-08-01T00:25:57;100016.91;;;15.78;89.01
79752;BME280;69234;47.446;21.636;2023-08-01T00:26:28;100017.94;;;15.77;89.57
79752;BME280;69234;47.446;21.636;2023-08-01T00:27:00;100006.41;;;15.75;89.57
79752;BME280;69234;47.446;21.636;2023-08-01T00:27:31;100007.44;;;15.74;89.16
79752;BME280;69234;47.446;21.636;2023-08-01T00:28:03;100011.19;;;15.73;89.05
79752;BME280;69234;47.446;21.636;2023-08-01T00:28:34;100008.47;;;15.73;89.14
79752;BME280;69234;47.446;21.636;2023-08-01T00:29:06;100006.41;;;15.75;88.61
79752;BME280;69234;47.446;21.636;2023-08-01T00:29:37;100010.16;;;15.74;88.99
79752;BME280;69234;47.446;21.636;2023-08-01T00:30:10;100001.34;;;15.72;88.97
79752;BME280;69234;47.446;21.636;2023-08-01T00:30:41;100005.56;;;15.75;89.11
79752;BME280;69234;47.446;21.636;2023-08-01T00:31:15;100007.25;;;15.76;89.30
79752;BME280;69234;47.446;21.636;2023-08-01T00:31:47;100009.81;;;15.77;88.39
79752;BME280;69234;47.446;21.636;2023-08-01T00:32:18;100008.13;;;15.76;88.79
79752;BME280;69234;47.446;21.636;2023-08-01T00:32:49;100004.75;;;15.74;88.00
79752;BME280;69234;47.446;21.636;2023-08-01T00:33:20;100003.72;;;15.75;88.83
79752;BME280;69234;47.446;21.636;2023-08-01T00:33:51;100001.34;;;15.72;88.71
79752;BME280;69234;47.446;21.636;2023-08-01T00:34:21;99998.81;;;15.71;88.79
79752;BME280;69234;47.446;21.636;2023-08-01T00:34:54;100001.72;;;15.69;88.58
79752;BME280;69234;47.446;21.636;2023-08-01T00:35:25;100002.06;;;15.66;89.56
79752;BME280;69234;47.446;21.636;2023-08-01T00:35:56;99999.00;;;15.69;88.82
79752;BME280;69234;47.446;21.636;2023-08-01T00:36:27;100000.00;;;15.68;88.93
79752;BME280;69234;47.446;21.636;2023-08-01T00:36:58;99993.94;;;15.66;88.56
79752;BME280;69234;47.446;21.636;2023-08-01T00:37:29;99990.31;;;15.65;88.59
79752;BME280;69234;47.446;21.636;2023-08-01T00:38:00;99994.59;;;15.68;88.32
79752;BME280;69234;47.446;21.636;2023-08-01T00:38:31;99994.06;;;15.64;89.17
79752;BME280;69234;47.446;21.636;2023-08-01T00:39:02;99998.63;;;15.64;88.16
79752;BME280;69234;47.446;21.636;2023-08-01T00:39:33;99994.59;;;15.60;88.87
79752;BME280;69234;47.446;21.636;2023-08-01T00:40:04;99994.59;;;15.60;89.39
79752;BME280;69234;47.446;21.636;2023-08-01T00:40:35;99990.53;;;15.56;88.94
79752;BME280;69234;47.446;21.636;2023-08-01T00:41:06;99996.97;;;15.63;88.42
79752;BME280;69234;47.446;21.636;2023-08-01T00:41:37;99992.38;;;15.63;88.51
79752;BME280;69234;47.446;21.636;2023-08-01T00:42:08;99989.00;;;15.61;88.28
79752;BME280;69234;47.446;21.636;2023-08-01T00:42:39;99987.13;;;15.62;88.53
79752;BME280;69234;47.446;21.636;2023-08-01T00:43:10;99994.91;;;15.65;88.37
79752;BME280;69234;47.446;21.636;2023-08-01T00:43:41;99993.22;;;15.64;88.18
79752;BME280;69234;47.446;21.636;2023-08-01T00:44:12;99992.19;;;15.65;88.66
79752;BME280;69234;47.446;21.636;2023-08-01T00:44:44;99992.06;;;15.66;87.62
79752;BME280;69234;47.446;21.636;2023-08-01T00:45:15;99997.28;;;15.68;88.50
79752;BME280;69234;47.446;21.636;2023-08-01T00:45:47;99993.94;;;15.66;88.79
79752;BME280;69234;47.446;21.636;2023-08-01T00:46:18;99992.22;;;15.57;89.34
79752;BME280;69234;47.446;21.636;2023-08-01T00:46:50;99993.06;;;15.57;89.33
79752;BME280;69234;47.446;21.636;2023-08-01T00:47:21;99992.22;;;15.57;88.50
79752;BME280;69234;47.446;21.636;2023-08-01T00:47:54;99987.16;;;15.54;88.55
79752;BME280;69234;47.446;21.636;2023-08-01T00:48:27;99988.19;;;15.53;88.93
79752;BME280;69234;47.446;21.636;2023-08-01T00:48:59;99991.53;;;15.55;88.89
79752;BME280;69234;47.446;21.636;2023-08-01T00:49:31;99992.22;;;15.57;88.50
79752;BME280;69234;47.446;21.636;2023-08-01T00:50:04;99996.78;;;15.56;88.47
79752;BME280;69234;47.446;21.636;2023-08-01T00:50:35;99988.69;;;15.56;88.39
79752;BME280;69234;47.446;21.636;2023-08-01T00:51:07;99990.03;;;15.52;88.45
79752;BME280;69234;47.446;21.636;2023-08-01T00:51:41;99990.88;;;15.53;89.12
79752;BME280;69234;47.446;21.636;2023-08-01T00:52:13;99997.97;;;15.54;88.33
79752;BME280;69234;47.446;21.636;2023-08-01T00:52:45;99990.88;;;15.53;88.92
79752;BME280;69234;47.446;21.636;2023-08-01T00:53:18;99982.41;;;15.48;88.64
79752;BME280;69234;47.446;21.636;2023-08-01T00:54:10;99996.31;;;15.53;88.19
79752;BME280;69234;47.446;21.636;2023-08-01T00:54:41;99994.59;;;15.52;89.02
79752;BME280;69234;47.446;21.636;2023-08-01T00:55:14;99993.59;;;15.53;88.50
79752;BME280;69234;47.446;21.636;2023-08-01T00:55:45;99985.81;;;15.50;88.00
79752;BME280;69234;47.446;21.636;2023-08-01T00:56:17;99996.94;;;15.55;88.65
79752;BME280;69234;47.446;21.636;2023-08-01T00:56:50;99997.97;;;15.54;88.15
79752;BME280;69234;47.446;21.636;2023-08-01T00:57:21;99989.88;;;15.45;88.80
79752;BME280;69234;47.446;21.636;2023-08-01T00:57:53;99991.22;;;15.50;88.29
79752;BME280;69234;47.446;21.636;2023-08-01T00:58:25;99999.16;;;15.51;88.26
79752;BME280;69234;47.446;21.636;2023-08-01T00:58:57;99997.66;;;15.49;88.92
79752;BME280;69234;47.446;21.636;2023-08-01T00:59:28;100006.78;;;15.48;88.91
79752;BME280;69234;47.446;21.636;2023-08-01T01:00:00;99992.41;;;15.47;87.96
79752;BME280;69234;47.446;21.636;2023-08-01T01:00:32;100003.22;;;15.47;88.61
79752;BME280;69234;47.446;21.636;2023-08-01T01:01:04;100000.72;;;15.45;87.96
79752;BME280;69234;47.446;21.636;2023-08-01T01:01:36;100000.03;;;15.43;88.54
79752;BME280;69234;47.446;21.636;2023-08-01T01:02:07;100002.72;;;15.43;88.20
79752;BME280;69234;47.446;21.636;2023-08-01T01:02:39;99996.28;;;15.44;88.65
79752;BME280;69234;47.446;21.636;2023-08-01T01:03:11;99992.75;;;15.44;88.58
79752;BME280;69234;47.446;21.636;2023-08-01T01:03:43;99994.94;;;15.40;88.67
79752;BME280;69234;47.446;21.636;2023-08-01T01:04:14;100006.13;;;15.45;88.05
79752;BME280;69234;47.446;21.636;2023-08-01T01:04:45;100002.41;;;15.46;88.25
79752;BME280;69234;47.446;21.636;2023-08-01T01:05:17;99998.34;;;15.42;88.04
79752;BME280;69234;47.446;21.636;2023-08-01T01:06:20;100000.03;;;15.43;88.89
79752;BME280;69234;47.446;21.636;2023-08-01T01:06:57;99997.81;;;15.47;88.58
79752;BME280;69234;47.446;21.636;2023-08-01T01:07:31;99991.91;;;15.43;88.39
79752;BME280;69234;47.446;21.636;2023-08-01T01:08:04;99999.00;;;15.44;89.22
79752;BME280;69234;47.446;21.636;2023-08-01T01:08:36;100001.38;;;15.48;87.90
79752;BME280;69234;47.446;21.636;2023-08-01T01:09:20;99996.28;;;15.44;88.89
79752;BME280;69234;47.446;21.636;2023-08-01T01:09:51;100004.25;;;15.46;87.86
79752;BME280;69234;47.446;21.636;2023-08-01T01:10:23;100001.56;;;15.46;89.16
79752;BME280;69234;47.446;21.636;2023-08-01T01:10:54;100003.56;;;15.44;88.22
79752;BME280;69234;47.446;21.636;2023-08-01T01:11:25;99993.59;;;15.44;88.13
79752;BME280;69234;47.446;21.636;2023-08-01T01:11:57;100006.78;;;15.48;88.10
79752;BME280;69234;47.446;21.636;2023-08-01T01:12:29;100004.91;;;15.48;88.20
79752;BME280;69234;47.446;21.636;2023-08-01T01:13:01;100005.09;;;15.46;88.68
79752;BME280;69234;47.446;21.636;2023-08-01T01:13:32;99998.66;;;15.48;87.85
79752;BME280;69234;47.446;21.636;2023-08-01T01:14:04;100005.78;;;15.49;87.43
79752;BME280;69234;47.446;21.636;2023-08-01T01:14:35;99998.50;;;15.49;87.40
79752;BME280;69234;47.446;21.636;2023-08-01T01:15:07;99998.31;;;15.51;87.22
79752;BME280;69234;47.446;21.636;2023-08-01T01:15:38;99991.22;;;15.50;87.78
79752;BME280;69234;47.446;21.636;2023-08-01T01:16:09;99989.53;;;15.49;87.74
79752;BME280;69234;47.446;21.636;2023-08-01T01:16:41;99998.31;;;15.51;87.40
79752;BME280;69234;47.446;21.636;2023-08-01T01:17:13;99994.59;;;15.52;87.23
79752;BME280;69234;47.446;21.636;2023-08-01T01:17:44;99993.59;;;15.53;87.21
79752;BME280;69234;47.446;21.636;2023-08-01T01:18:16;99999.16;;;15.51;87.79
79752;BME280;69234;47.446;21.636;2023-08-01T01:18:47;99993.75;;;15.51;86.91
79752;BME280;69234;47.446;21.636;2023-08-01T01:19:18;99991.22;;;15.50;87.98
79752;BME280;69234;47.446;21.636;2023-08-01T01:19:50;99992.06;;;15.50;87.27
79752;BME280;69234;47.446;21.636;2023-08-01T01:20:24;99987.84;;;15.48;87.82
79752;BME280;69234;47.446;21.636;2023-08-01T01:20:55;99988.69;;;15.48;87.10
79752;BME280;69234;47.446;21.636;2023-08-01T01:21:26;99991.91;;;15.43;87.70
79752;BME280;69234;47.446;21.636;2023-08-01T01:21:58;99999.00;;;15.44;88.16
79752;BME280;69234;47.446;21.636;2023-08-01T01:22:30;100003.41;;;15.45;87.12
79752;BME280;69234;47.446;21.636;2023-08-01T01:23:06;100002.41;;;15.46;87.18
79752;BME280;69234;47.446;21.636;2023-08-01T01:23:41;99992.25;;;15.40;87.77
79752;BME280;69234;47.446;21.636;2023-08-01T01:24:14;99990.91;;;15.36;88.02
79752;BME280;69234;47.446;21.636;2023-08-01T01:24:47;99995.63;;;15.34;88.25
79752;BME280;69234;47.446;21.636;2023-08-01T01:25:20;99997.16;;;15.37;87.73
79752;BME280;69234;47.446;21.636;2023-08-01T01:25:54;99994.63;;;15.35;87.62
79752;BME280;69234;47.446;21.636;2023-08-01T01:26:28;99993.78;;;15.35;88.18
79752;BME280;69234;47.446;21.636;2023-08-01T01:26:59;99994.63;;;15.35;87.52
79752;BME280;69234;47.446;21.636;2023-08-01T01:27:31;99998.19;;;15.36;88.17
79752;BME280;69234;47.446;21.636;2023-08-01T01:28:05;99995.63;;;15.34;88.36
79752;BME280;69234;47.446;21.636;2023-08-01T01:28:37;100000.38;;;15.32;87.94
79752;BME280;69234;47.446;21.636;2023-08-01T01:29:10;100003.63;;;15.28;87.11
79752;BME280;69234;47.446;21.636;2023-08-01T01:29:43;99995.31;;;15.29;87.34
79752;BME280;69234;47.446;21.636;2023-08-01T01:30:16;99989.06;;;15.29;87.37
79752;BME280;69234;47.446;21.636;2023-08-01T01:30:49;99996.81;;;15.23;87.67
79752;BME280;69234;47.446;21.636;2023-08-01T01:31:20;99990.91;;;15.20;88.51
79752;BME280;69234;47.446;21.636;2023-08-01T01:31:52;99984.69;;;15.11;88.54
79752;BME280;69234;47.446;21.636;2023-08-01T01:32:25;99997.00;;;15.22;88.62
79752;BME280;69234;47.446;21.636;2023-08-01T01:32:57;99997.16;;;15.20;87.42
79752;BME280;69234;47.446;21.636;2023-08-01T01:33:28;99991.41;;;15.23;87.51
79752;BME280;69234;47.446;21.636;2023-08-01T01:33:59;99990.56;;;15.23;88.35
79752;BME280;69234;47.446;21.636;2023-08-01T01:34:31;99989.03;;;15.20;88.78
79752;BME280;69234;47.446;21.636;2023-08-01T01:35:04;99987.56;;;15.18;87.87
79752;BME280;69234;47.446;21.636;2023-08-01T01:35:35;99991.25;;;15.17;89.03
79752;BME280;69234;47.446;21.636;2023-08-01T01:36:06;99986.88;;;15.16;88.91
79752;BME280;69234;47.446;21.636;2023-08-01T01:36:38;99999.56;;;15.15;87.72
79752;BME280;69234;47.446;21.636;2023-08-01T01:37:10;99996.16;;;15.13;87.76
79752;BME280;69234;47.446;21.636;2023-08-01T01:37:41;99986.88;;;15.16;88.78
79752;BME280;69234;47.446;21.636;2023-08-01T01:38:12;99989.75;;;15.14;88.91
79752;BME280;69234;47.446;21.636;2023-08-01T01:38:43;99999.03;;;15.12;88.44
79752;BME280;69234;47.446;21.636;2023-08-01T01:39:14;99993.81;;;15.10;87.76
79752;BME280;69234;47.446;21.636;2023-08-01T01:39:45;99994.31;;;15.06;88.51
79752;BME280;69234;47.446;21.636;2023-08-01T01:40:16;99991.78;;;15.04;88.39
79752;BME280;69234;47.446;21.636;2023-08-01T01:40:47;100000.56;;;15.06;89.19
79752;BME280;69234;47.446;21.636;2023-08-01T01:41:18;99992.13;;;15.01;89.12
79752;BME280;69234;47.446;21.636;2023-08-01T01:41:49;99992.97;;;15.02;88.70
79752;BME280;69234;47.446;21.636;2023-08-01T01:42:20;99992.97;;;15.02;89.14
79752;BME280;69234;47.446;21.636;2023-08-01T01:42:50;99994.97;;;14.99;89.18
79752;BME280;69234;47.446;21.636;2023-08-01T01:43:21;99990.44;;;15.00;88.86
79752;BME280;69234;47.446;21.636;2023-08-01T01:43:52;99995.34;;;14.96;88.70
79752;BME280;69234;47.446;21.636;2023-08-01T01:44:23;99986.34;;;14.96;89.11
79752;BME280;69234;47.446;21.636;2023-08-01T01:44:54;100001.91;;;14.94;89.08
79752;BME280;69234;47.446;21.636;2023-08-01T01:45:25;99987.56;;;14.93;89.98
79752;BME280;69234;47.446;21.636;2023-08-01T01:45:56;99985.34;;;14.89;89.75
79752;BME280;69234;47.446;21.636;2023-08-01T01:46:27;99989.91;;;14.88;89.85
79752;BME280;69234;47.446;21.636;2023-08-01T01:46:58;99979.41;;;14.85;89.41
79752;BME280;69234;47.446;21.636;2023-08-01T01:47:29;99991.44;;;14.91;89.48
79752;BME280;69234;47.446;21.636;2023-08-01T01:48:00;99991.78;;;14.88;89.34
79752;BME280;69234;47.446;21.636;2023-08-01T01:48:31;99974.88;;;14.78;89.05
79752;BME280;69234;47.446;21.636;2023-08-01T01:49:02;99988.72;;;14.91;89.67
79752;BME280;69234;47.446;21.636;2023-08-01T01:49:33;99992.28;;;14.91;89.31
79752;BME280;69234;47.446;21.636;2023-08-01T01:50:04;99985.19;;;14.90;88.74
79752;BME280;69234;47.446;21.636;2023-08-01T01:50:36;99990.25;;;14.93;88.55
79752;BME280;69234;47.446;21.636;2023-08-01T01:51:07;99983.47;;;14.89;89.38
79752;BME280;69234;47.446;21.636;2023-08-01T01:51:38;99982.81;;;14.87;89.64
79752;BME280;69234;47.446;21.636;2023-08-01T01:52:08;99980.13;;;14.87;89.75
79752;BME280;69234;47.446;21.636;2023-08-01T01:52:39;99987.53;;;14.85;89.55
79752;BME280;69234;47.446;21.636;2023-08-01T01:53:10;99986.53;;;14.86;89.66
79752;BME280;69234;47.446;21.636;2023-08-01T01:53:41;99980.44;;;14.84;88.78
79752;BME280;69234;47.446;21.636;2023-08-01T01:54:14;99979.41;;;14.85;88.60
79752;BME280;69234;47.446;21.636;2023-08-01T01:54:45;99982.13;;;14.85;89.11
79752;BME280;69234;47.446;21.636;2023-08-01T01:55:16;99983.84;;;14.86;89.66
79752;BME280;69234;47.446;21.636;2023-08-01T01:55:47;99974.19;;;14.84;89.60
79752;BME280;69234;47.446;21.636;2023-08-01T01:56:18;99988.22;;;14.87;88.56
79752;BME280;69234;47.446;21.636;2023-08-01T01:56:49;99981.13;;;14.86;89.28
79752;BME280;69234;47.446;21.636;2023-08-01T01:57:20;99983.84;;;14.86;88.66
79752;BME280;69234;47.446;21.636;2023-08-01T01:57:51;99982.81;;;14.87;89.21
79752;BME280;69234;47.446;21.636;2023-08-01T01:58:22;99979.28;;;14.87;88.72
79752;BME280;69234;47.446;21.636;2023-08-01T01:58:53;99978.56;;;14.85;88.65
79752;BME280;69234;47.446;21.636;2023-08-01T01:59:24;99979.78;;;14.90;89.00
79752;BME280;69234;47.446;21.636;2023-08-01T01:59:54;99978.25;;;14.88;88.59
79752;BME280;69234;47.446;21.636;2023-08-01T02:00:25;99978.56;;;14.85;88.90
79752;BME280;69234;47.446;21.636;2023-08-01T02:00:56;99980.13;;;14.87;88.79
79752;BME280;69234;47.446;21.636;2023-08-01T02:01:27;99976.72;;;14.85;89.55
79752;BME280;69234;47.446;21.636;2023-08-01T02:01:58;99973.03;;;14.86;88.92
79752;BME280;69234;47.446;21.636;2023-08-01T02:02:30;99981.28;;;14.85;89.74
79752;BME280;69234;47.446;21.636;2023-08-01T02:03:01;99974.19;;;14.84;88.55
79752;BME280;69234;47.446;21.636;2023-08-01T02:03:33;99979.94;;;14.81;88.78
79752;BME280;69234;47.446;21.636;2023-08-01T02:04:04;99982.47;;;14.82;89.01
79752;BME280;69234;47.446;21.636;2023-08-01T02:04:35;99974.03;;;14.77;89.52
79752;BME280;69234;47.446;21.636;2023-08-01T02:05:06;99972.84;;;14.80;89.57
79752;BME280;69234;47.446;21.636;2023-08-01T02:05:37;99980.78;;;14.81;89.59
79752;BME280;69234;47.446;21.636;2023-08-01T02:06:08;99982.81;;;14.79;89.23
79752;BME280;69234;47.446;21.636;2023-08-01T02:06:39;99982.81;;;14.79;89.25
79752;BME280;69234;47.446;21.636;2023-08-01T02:07:10;99975.69;;;14.78;88.57
79752;BME280;69234;47.446;21.636;2023-08-01T02:07:41;99982.63;;;14.81;89.68
79752;BME280;69234;47.446;21.636;2023-08-01T02:08:12;99981.81;;;14.80;89.71
79752;BME280;69234;47.446;21.636;2023-08-01T02:08:43;99977.41;;;14.79;89.62
79752;BME280;69234;47.446;21.636;2023-08-01T02:09:14;99977.41;;;14.79;89.74
79752;BME280;69234;47.446;21.636;2023-08-01T02:09:45;99979.25;;;14.79;89.09
79752;BME280;69234;47.446;21.636;2023-08-01T02:10:17;99977.75;;;14.76;89.05
79752;BME280;69234;47.446;21.636;2023-08-01T02:10:48;99978.59;;;14.77;89.07
79752;BME280;69234;47.446;21.636;2023-08-01T02:11:20;99986.53;;;14.78;89.70
79752;BME280;69234;47.446;21.636;2023-08-01T02:11:52;99984.84;;;14.77;89.20
79752;BME280;69234;47.446;21.636;2023-08-01T02:12:23;99995.31;;;14.80;89.28
79752;BME280;69234;47.446;21.636;2023-08-01T02:12:53;99988.88;;;14.81;89.07
79752;BME280;69234;47.446;21.636;2023-08-01T02:13:26;99977.56;;;14.78;88.93
79752;BME280;69234;47.446;21.636;2023-08-01T02:13:58;99988.56;;;14.84;88.81
79752;BME280;69234;47.446;21.636;2023-08-01T02:14:29;99994.66;;;14.86;88.95
79752;BME280;69234;47.446;21.636;2023-08-01T02:15:00;99986.19;;;14.81;88.83
79752;BME280;69234;47.446;21.636;2023-08-01T02:15:31;99984.66;;;14.79;88.65
79752;BME280;69234;47.446;21.636;2023-08-01T02:16:02;99987.53;;;14.77;89.17
79752;BME280;69234;47.446;21.636;2023-08-01T02:16:34;99986.84;;;14.75;89.76
79752;BME280;69234;47.446;21.636;2023-08-01T02:17:05;99991.09;;;14.78;88.85
79752;BME280;69234;47.446;21.636;2023-08-01T02:17:36;99993.13;;;14.76;89.63
79752;BME280;69234;47.446;21.636;2023-08-01T02:18:07;99982.47;;;14.74;90.25
79752;BME280;69234;47.446;21.636;2023-08-01T02:18:38;99986.84;;;14.75;89.21
79752;BME280;69234;47.446;21.636;2023-08-01T02:19:09;99983.47;;;14.73;89.38
79752;BME280;69234;47.446;21.636;2023-08-01T02:19:40;99987.19;;;14.72;89.10
79752;BME280;69234;47.446;21.636;2023-08-01T02:20:11;99981.44;;;14.67;89.18
79752;BME280;69234;47.446;21.636;2023-08-01T02:20:43;99990.25;;;14.69;90.16
79752;BME280;69234;47.446;21.636;2023-08-01T02:21:13;99984.47;;;14.64;89.50
79752;BME280;69234;47.446;21.636;2023-08-01T02:21:44;99986.00;;;14.58;90.67
79752;BME280;69234;47.446;21.636;2023-08-01T02:22:15;99983.13;;;14.60;90.54
79752;BME280;69234;47.446;21.636;2023-08-01T02:22:46;99986.84;;;14.59;90.33
79752;BME280;69234;47.446;21.636;2023-08-01T02:23:17;99990.53;;;14.58;89.83
79752;BME280;69234;47.446;21.636;2023-08-01T02:23:48;99993.94;;;14.60;90.06
79752;BME280;69234;47.446;21.636;2023-08-01T02:24:19;99994.78;;;14.60;90.63
79752;BME280;69234;47.446;21.636;2023-08-01T02:24:50;99986.84;;;14.59;90.15
79752;BME280;69234;47.446;21.636;2023-08-01T02:25:21;99987.00;;;14.57;90.98
79752;BME280;69234;47.446;21.636;2023-08-01T02:25:52;99989.88;;;14.56;89.92
79752;BME280;69234;47.446;21.636;2023-08-01T02:26:23;99990.72;;;14.56;91.01
79752;BME280;69234;47.446;21.636;2023-08-01T02:26:54;99998.66;;;14.58;90.57
79752;BME280;69234;47.446;21.636;2023-08-01T02:27:26;99997.16;;;14.55;90.40
79752;BME280;69234;47.446;21.636;2023-08-01T02:27:57;99988.03;;;14.56;90.82
79752;BME280;69234;47.446;21.636;2023-08-01T02:28:27;99995.28;;;14.56;90.53
79752;BME280;69234;47.446;21.636;2023-08-01T02:28:58;99993.56;;;14.55;91.17
79752;BME280;69234;47.446;21.636;2023-08-01T02:29:29;99986.66;;;14.52;90.16
79752;BME280;69234;47.446;21.636;2023-08-01T02:30:00;99987.81;;;14.49;91.08
79752;BME280;69234;47.446;21.636;2023-08-01T02:30:31;99992.38;;;14.49;90.68
79752;BME280;69234;47.446;21.636;2023-08-01T02:31:02;99982.72;;;14.46;90.76
79752;BME280;69234;47.446;21.636;2023-08-01T02:31:33;99987.97;;;14.48;90.46
79752;BME280;69234;47.446;21.636;2023-08-01T02:32:04;99991.84;;;14.45;91.39
79752;BME280;69234;47.446;21.636;2023-08-01T02:32:35;99985.44;;;14.46;91.65
79752;BME280;69234;47.446;21.636;2023-08-01T02:33:06;99984.06;;;14.42;91.65
79752;BME280;69234;47.446;21.636;2023-08-01T02:33:37;99980.03;;;14.46;90.48
79752;BME280;69234;47.446;21.636;2023-08-01T02:34:08;99990.84;;;14.46;90.66
79752;BME280;69234;47.446;21.636;2023-08-01T02:34:39;99986.44;;;14.45;90.84
79752;BME280;69234;47.446;21.636;2023-08-01T02:35:10;99993.84;;;14.43;91.45
79752;BME280;69234;47.446;21.636;2023-08-01T02:35:41;99990.84;;;14.46;90.50
79752;BME280;69234;47.446;21.636;2023-08-01T02:36:11;99989.16;;;14.45;91.92
79752;BME280;69234;47.446;21.636;2023-08-01T02:36:42;99985.75;;;14.43;91.15
79752;BME280;69234;47.446;21.636;2023-08-01T02:37:13;99987.63;;;14.43;92.14
79752;BME280;69234;47.446;21.636;2023-08-01T02:37:44;99991.00;;;14.45;90.95
79752;BME280;69234;47.446;21.636;2023-08-01T02:38:15;99991.16;;;14.43;91.07
79752;BME280;69234;47.446;21.636;2023-08-01T02:38:46;99986.78;;;14.42;92.05
79752;BME280;69234;47.446;21.636;2023-08-01T02:39:17;99993.84;;;14.43;90.78
79752;BME280;69234;47.446;21.636;2023-08-01T02:39:48;99996.56;;;14.43;91.43
79752;BME280;69234;47.446;21.636;2023-08-01T02:40:19;99992.00;;;14.44;92.16
79752;BME280;69234;47.446;21.636;2023-08-01T02:40:50;99990.50;;;14.41;91.69
79752;BME280;69234;47.446;21.636;2023-08-01T02:41:21;99988.63;;;14.42;91.96
79752;BME280;69234;47.446;21.636;2023-08-01T02:41:52;99993.03;;;14.43;91.14
79752;BME280;69234;47.446;21.636;2023-08-01T02:42:22;99991.16;;;14.43;90.81
79752;BME280;69234;47.446;21.636;2023-08-01T02:42:53;99987.47;;;14.44;91.49
79752;BME280;69234;47.446;21.636;2023-08-01T02:43:25;99995.56;;;14.44;91.33
79752;BME280;69234;47.446;21.636;2023-08-01T02:43:56;99996.41;;;14.45;91.21
79752;BME280;69234;47.446;21.636;2023-08-01T02:44:28;99995.56;;;14.44;90.90
79752;BME280;69234;47.446;21.636;2023-08-01T02:45:00;100000.44;;;14.41;91.41